^^
Station Historical Data
Daily Summary for February 24, 2018 Units:  Metric    English   Both
« Previous Day
Next Day »
Daily Weekly Monthly Yearly Custom
  High: Low: Average:
Temperature: -17.8 °C 14.3 °C 18 °C
Dew Point: -17.8 °C 5.4 °C 8.7 °C
Humidity: Humidity% 31% 56%
Wind Speed: 0km/h 7.9km/h 17.9km/h
Wind Gust: 0km/h - -
Wind- - South
Pressure: 0 hPa 1006 hPa -
Precipitation: 0 mm    
Historical Graphs
 
 
Tabular Data for February 24, 2018
Time Temperature Dew Point Pressure Wind Wind Speed Wind Gust Humidity Rainfall Rate (Hourly) solar Conditions
-17.8 °C -17.8 °C 0 hPa Calm     Humidity% 0 mm SolarRadiationWatts/m^2 W/m2 Conditions
00:00 17 °C 11.5 °C 1006.7 hPa South 25.9 km/h 30.6 km/h 70% 0 mm 0.0 W/m2
00:05 16.9 °C 11.4 °C 1007 hPa South 17.7 km/h 30.6 km/h 70% 0 mm 0.0 W/m2
00:10 16.8 °C 11.5 °C 1007 hPa South 11.1 km/h 19.3 km/h 71% 0 mm 0.0 W/m2
00:20 16.8 °C 11.5 °C 1007 hPa South 14.3 km/h 24.1 km/h 71% 0 mm 0.0 W/m2
00:25 16.7 °C 11.4 °C 1007 hPa South 19.5 km/h 20.9 km/h 71% 0 mm 0.0 W/m2
00:30 16.7 °C 11.4 °C 1006.7 hPa South 16.3 km/h 24.1 km/h 71% 0 mm 0.0 W/m2
00:35 16.6 °C 11.3 °C 1006.7 hPa South 20.9 km/h 25.7 km/h 71% 0 mm 0.0 W/m2
00:40 16.5 °C 11.2 °C 1006.7 hPa South 13 km/h 27.4 km/h 71% 0 mm 0.0 W/m2
00:45 16.5 °C 11.2 °C 1007 hPa South 13 km/h 22.5 km/h 71% 0 mm 0.0 W/m2
00:50 16.4 °C 11.1 °C 1007 hPa South 13 km/h 22.5 km/h 71% 0 mm 0.0 W/m2
00:55 16.4 °C 10.9 °C 1006.7 hPa South 16.3 km/h 20.9 km/h 70% 0 mm 0.0 W/m2
01:00 16.4 °C 10.9 °C 1007 hPa SSE 14.3 km/h 20.9 km/h 70% 0 mm 0.0 W/m2
01:05 16.4 °C 10.9 °C 1006.7 hPa South 17.7 km/h 22.5 km/h 70% 0 mm 0.0 W/m2
01:10 16.4 °C 10.9 °C 1006.7 hPa South 22.7 km/h 24.1 km/h 70% 0 mm 0.0 W/m2
01:16 16.3 °C 10.8 °C 1006.7 hPa South 19.5 km/h 25.7 km/h 70% 0 mm 0.0 W/m2
01:21 16.3 °C 10.8 °C 1006.7 hPa South 14.3 km/h 22.5 km/h 70% 0 mm 0.0 W/m2
01:26 16.3 °C 10.8 °C 1006.7 hPa South 13 km/h 19.3 km/h 70% 0 mm 0.0 W/m2
01:31 16.3 °C 10.8 °C 1006.3 hPa South 16.3 km/h 19.3 km/h 70% 0 mm 0.0 W/m2
01:36 16.2 °C 10.7 °C 1006.3 hPa South 11.1 km/h 19.3 km/h 70% 0 mm 0.0 W/m2
01:41 16.2 °C 10.7 °C 1006.3 hPa South 22.7 km/h 24.1 km/h 70% 0 mm 0.0 W/m2
01:46 16.2 °C 10.7 °C 1006.3 hPa South 19.5 km/h 22.5 km/h 70% 0 mm 0.0 W/m2
01:51 16.2 °C 10.9 °C 1006.3 hPa South 20.9 km/h 20.9 km/h 71% 0 mm 0.0 W/m2
01:56 16.1 °C 10.8 °C 1006.3 hPa South 16.3 km/h 19.3 km/h 71% 0 mm 0.0 W/m2
02:01 16.1 °C 11.1 °C 1006.3 hPa South 14.3 km/h 20.9 km/h 72% 0 mm 0.0 W/m2
02:11 15.9 °C 10.9 °C 1006.3 hPa SSW 14.3 km/h 17.7 km/h 72% 0 mm 0.0 W/m2
02:16 15.9 °C 11.1 °C 1006.3 hPa SSW 17.7 km/h 20.9 km/h 73% 0 mm 0.0 W/m2
02:21 15.9 °C 11.1 °C 1006.3 hPa South 14.3 km/h 16.1 km/h 73% 0 mm 0.0 W/m2
02:26 15.8 °C 11 °C 1006 hPa South 19.5 km/h 20.9 km/h 73% 0 mm 0.0 W/m2
02:36 15.7 °C 10.9 °C 1006 hPa SSW 17.7 km/h 19.3 km/h 73% 0 mm 0.0 W/m2
02:42 15.7 °C 10.9 °C 1006 hPa South 16.3 km/h 19.3 km/h 73% 0 mm 0.0 W/m2
02:47 15.7 °C 10.9 °C 1006 hPa South 17.7 km/h 22.5 km/h 73% 0 mm 0.0 W/m2
02:52 15.6 °C 10.8 °C 1006 hPa South 14.3 km/h 20.9 km/h 73% 0 mm 0.0 W/m2
02:57 15.6 °C 10.8 °C 1006 hPa South 17.7 km/h 17.7 km/h 73% 0 mm 0.0 W/m2
03:02 15.5 °C 10.7 °C 1006 hPa SSW 9.7 km/h 20.9 km/h 73% 0 mm 0.0 W/m2
03:12 15.4 °C 10.2 °C 1006 hPa South 17.7 km/h 20.9 km/h 71% 0 mm 0.0 W/m2
03:17 15.4 °C 10 °C 1006 hPa South 13 km/h 20.9 km/h 70% 0 mm 0.0 W/m2
03:22 15.4 °C 9.1 °C 1006 hPa South 13 km/h 24.1 km/h 66% 0 mm 0.0 W/m2
03:27 15.3 °C 8.8 °C 1006 hPa South 19.5 km/h 20.9 km/h 65% 0 mm 0.0 W/m2
03:32 15.3 °C 8.5 °C 1006 hPa South 14.3 km/h 19.3 km/h 64% 0 mm 0.0 W/m2
03:42 15.2 °C 8.7 °C 1006.3 hPa South 20.9 km/h 22.5 km/h 65% 0 mm 0.0 W/m2
03:47 15.1 °C 8.8 °C 1006.3 hPa South 13 km/h 16.1 km/h 66% 0 mm 0.0 W/m2
03:52 15.1 °C 9 °C 1006 hPa South 11.1 km/h 17.7 km/h 67% 0 mm 0.0 W/m2
03:57 15.1 °C 9.2 °C 1006.3 hPa South 13 km/h 17.7 km/h 68% 0 mm 0.0 W/m2
04:02 15.1 °C 9.2 °C 1006.3 hPa South 17.7 km/h 17.7 km/h 68% 0 mm 0.0 W/m2
04:12 15.1 °C 9.5 °C 1006.3 hPa South 16.3 km/h 16.3 km/h 69% 0 mm 0.0 W/m2
04:17 15.1 °C 9.5 °C 1006.3 hPa South 14.3 km/h 14.5 km/h 69% 0 mm 0.0 W/m2
04:22 15.1 °C 9.5 °C 1006.7 hPa South 11.1 km/h 17.7 km/h 69% 0 mm 0.0 W/m2
04:27 15 °C 9.4 °C 1006.7 hPa South 9.7 km/h 12.9 km/h 69% 0 mm 0.0 W/m2
04:33 14.9 °C 9.3 °C 1006.7 hPa South 11.1 km/h 12.9 km/h 69% 0 mm 0.0 W/m2
04:38 14.9 °C 9.3 °C 1006.7 hPa South 9.7 km/h 11.3 km/h 69% 0 mm 0.0 W/m2
04:43 14.9 °C 9.3 °C 1006.7 hPa South 11.1 km/h 12.9 km/h 69% 0 mm 0.0 W/m2
04:48 14.9 °C 9.5 °C 1006.7 hPa South 13 km/h 13 km/h 70% 0 mm 0.0 W/m2
04:58 14.8 °C 9.2 °C 1007 hPa South 9.7 km/h 14.5 km/h 69% 0 mm 0.0 W/m2
05:03 14.8 °C 9.2 °C 1006.7 hPa South 9.7 km/h 17.7 km/h 69% 0 mm 0.0 W/m2
05:09 14.8 °C 9.2 °C 1006.7 hPa SSW 11.1 km/h 14.5 km/h 69% 0 mm 0.0 W/m2
05:19 14.7 °C 9.5 °C 1007 hPa SSW 13 km/h 14.5 km/h 71% 0 mm 0.0 W/m2
05:24 14.6 °C 9.4 °C 1007 hPa SSW 9.7 km/h 14.5 km/h 71% 0 mm 0.0 W/m2
05:33 14.6 °C 9.4 °C 1007.3 hPa SSW 13 km/h 16.1 km/h 71% 0 mm 0.0 W/m2
05:39 14.6 °C 9.4 °C 1007.3 hPa SSW 9.7 km/h 12.9 km/h 71% 0 mm 0.0 W/m2
05:44 14.6 °C 9.4 °C 1007.3 hPa SSW 11.1 km/h 16.1 km/h 71% 0 mm 0.0 W/m2
05:50 14.5 °C 9.3 °C 1007.3 hPa SSW 13 km/h 16.1 km/h 71% 0 mm 0.0 W/m2
05:59 14.5 °C 9.3 °C 1007.7 hPa SSW 9.7 km/h 14.5 km/h 71% 0 mm 0.0 W/m2
06:05 14.5 °C 9.3 °C 1007.7 hPa SSW 9.7 km/h 16.1 km/h 71% 0 mm 0.0 W/m2
06:14 14.4 °C 9 °C 1007.7 hPa SSW 9.7 km/h 16.1 km/h 70% 0 mm 0.0 W/m2
06:20 14.4 °C 9 °C 1007.7 hPa South 14.3 km/h 14.5 km/h 70% 0 mm 0.0 W/m2
06:25 14.4 °C 8.8 °C 1007.7 hPa SSW 9.7 km/h 16.1 km/h 69% 0 mm 0.0 W/m2
06:34 14.3 °C 8.5 °C 1008 hPa SSW 11.1 km/h 17.7 km/h 68% 0 mm 0.0 W/m2
06:44 14.3 °C 8.3 °C 1008 hPa SSW 14.3 km/h 17.7 km/h 67% 0 mm 7.0 W/m2
06:50 14.3 °C 8.3 °C 1008 hPa SSW 7.9 km/h 19.3 km/h 67% 0 mm 9.0 W/m2
06:56 14.3 °C 8 °C 1008 hPa SSW 11.1 km/h 16.1 km/h 66% 0 mm 12.0 W/m2
07:06 14.5 °C 8.2 °C 1008.4 hPa SSW 11.1 km/h 19.3 km/h 66% 0 mm 28.0 W/m2
07:16 14.7 °C 8.6 °C 1008.4 hPa South 17.7 km/h 19.3 km/h 67% 0 mm 60.0 W/m2
07:21 14.8 °C 8.7 °C 1008.7 hPa South 13 km/h 20.9 km/h 67% 0 mm 77.0 W/m2
07:29 14.8 °C 8.7 °C 1008.7 hPa SSW 17.7 km/h 20.9 km/h 67% 0 mm 97.0 W/m2
07:55 15.3 °C 9 °C 1009 hPa South 14.3 km/h 24.1 km/h 66% 0 mm 214.0 W/m2
08:05 15.5 °C 9.4 °C 1009 hPa South 19.5 km/h 24.1 km/h 67% 0 mm 257.0 W/m2
08:17 15.8 °C 9.5 °C 1009 hPa South 20.9 km/h 24.1 km/h 66% 0 mm 311.0 W/m2
08:26 16 °C 9.7 °C 1009.4 hPa SSW 22.7 km/h 24.1 km/h 66% 0 mm 348.0 W/m2
08:36 16.1 °C 9.5 °C 1009.4 hPa South 20.9 km/h 22.5 km/h 65% 0 mm 385.0 W/m2
08:47 16.3 °C 9.2 °C 1009.4 hPa South 25.9 km/h 27.4 km/h 63% 0 mm 422.0 W/m2
08:53 16.4 °C 9.1 °C 1009.4 hPa SSW 19.5 km/h 25.7 km/h 62% 0 mm 438.0 W/m2
09:06 16.8 °C 9.2 °C 1009.4 hPa South 20.9 km/h 27.4 km/h 61% 0 mm 478.0 W/m2
09:19 17.4 °C 9.6 °C 1009.7 hPa South 19.5 km/h 22.5 km/h 60% 0 mm 526.0 W/m2
09:28 17.7 °C 9.3 °C 1009.7 hPa SSW 25.9 km/h 27.4 km/h 58% 0 mm 561.0 W/m2
09:40 17.9 °C 9.3 °C 1009.4 hPa SSW 19.5 km/h 27.4 km/h 57% 0 mm 591.0 W/m2
09:51 18.3 °C 8.6 °C 1009.7 hPa SSW 17.7 km/h 22.5 km/h 53% 0 mm 622.0 W/m2
10:06 18.8 °C 8.4 °C 1009.4 hPa SSW 16.3 km/h 20.9 km/h 51% 0 mm 666.0 W/m2
10:19 19.4 °C 7.8 °C 1009.4 hPa South 11.1 km/h 24.1 km/h 47% 0 mm 703.0 W/m2
10:27 19.9 °C 7.3 °C 1009.4 hPa South 17.7 km/h 19.3 km/h 44% 0 mm 742.0 W/m2
10:36 20.3 °C 7.6 °C 1009.4 hPa SSW 14.3 km/h 17.7 km/h 44% 0 mm 765.0 W/m2
10:41 20.7 °C 8 °C 1009 hPa SSE 17.7 km/h 25.7 km/h 44% 0 mm 777.0 W/m2
10:47 20.8 °C 8.1 °C 1009 hPa SW 16.3 km/h 22.5 km/h 44% 0 mm 786.0 W/m2
11:06 21.6 °C 8.5 °C 1009 hPa South 20.9 km/h 22.5 km/h 43% 0 mm 831.0 W/m2
11:11 21.9 °C 8.4 °C 1009 hPa SSW 19.5 km/h 27.4 km/h 42% 0 mm 840.0 W/m2
11:16 22 °C 8.1 °C 1009 hPa South 22.7 km/h 25.7 km/h 41% 0 mm 849.0 W/m2
11:21 21.9 °C 8.4 °C 1009 hPa SSW 14.3 km/h 22.5 km/h 42% 0 mm 858.0 W/m2
11:27 22.1 °C 8.6 °C 1009 hPa SSW 14.3 km/h 19.3 km/h 42% 0 mm 868.0 W/m2
11:37 22.4 °C 8.1 °C 1009 hPa SW 16.3 km/h 20.9 km/h 40% 0 mm 886.0 W/m2
11:42 22.7 °C 8 °C 1009 hPa SSW 20.9 km/h 27.4 km/h 39% 0 mm 891.0 W/m2
11:47 22.7 °C 7.6 °C 1009 hPa SSW 19.5 km/h 20.9 km/h 38% 0 mm 896.0 W/m2
11:53 23.1 °C 8.4 °C 1009 hPa South 16.3 km/h 25.7 km/h 39% 0 mm 904.0 W/m2
12:04 23.4 °C 7.5 °C 1008.7 hPa SSW 17.7 km/h 24.1 km/h 36% 0 mm 918.0 W/m2
12:21 23.6 °C 7.7 °C 1008.7 hPa SSW 17.7 km/h 27.4 km/h 36% 0 mm 933.0 W/m2
12:31 23.9 °C 7.9 °C 1008.7 hPa SSW 22.7 km/h 27.4 km/h 36% 0 mm 939.0 W/m2
12:39 24 °C 8 °C 1008.7 hPa SSW 16.3 km/h 22.5 km/h 36% 0 mm 944.0 W/m2
12:49 24 °C 9.2 °C 1008.7 hPa South 20.9 km/h 20.9 km/h 39% 0 mm 947.0 W/m2
12:59 24.2 °C 8.6 °C 1008.7 hPa SW 16.3 km/h 19.3 km/h 37% 0 mm 949.0 W/m2
13:17 24.7 °C 8.6 °C 1008.7 hPa SSW 19.5 km/h 25.7 km/h 36% 0 mm 953.0 W/m2
13:28 24.7 °C 8.2 °C 1008.4 hPa SSW 13 km/h 24.1 km/h 35% 0 mm 947.0 W/m2
13:42 25.4 °C 8.4 °C 1008.4 hPa SSW 11.1 km/h 24.1 km/h 34% 0 mm 939.0 W/m2
13:53 25.3 °C 8.3 °C 1008.4 hPa South 22.7 km/h 24.1 km/h 34% 0 mm 932.0 W/m2
14:08 25.6 °C 8.6 °C 1008 hPa SSW 19.5 km/h 25.7 km/h 34% 0 mm 912.0 W/m2
14:24 25.8 °C 8.3 °C 1008 hPa SW 14.3 km/h 29 km/h 33% 0 mm 896.0 W/m2
14:38 26 °C 8 °C 1007.7 hPa SSW 22.7 km/h 24.1 km/h 32% 0 mm 872.0 W/m2
14:46 26.2 °C 8.7 °C 1007.7 hPa SSW 22.7 km/h 29 km/h 33% 0 mm 856.0 W/m2
14:51 26.2 °C 8.7 °C 1007.7 hPa SSW 20.9 km/h 25.7 km/h 33% 0 mm 856.0 W/m2
15:04 26.5 °C 8.9 °C 1007.7 hPa South 25.9 km/h 25.9 km/h 33% 0 mm 830.0 W/m2
15:48 26.4 °C 8.8 °C 1007.3 hPa SSE 22.7 km/h 27.4 km/h 33% 0 mm 717.0 W/m2
15:57 26.5 °C 8 °C 1007 hPa SSE 22.7 km/h 25.7 km/h 31% 0 mm 682.0 W/m2
16:19 26.5 °C 8 °C 1007 hPa South 25.9 km/h 29 km/h 31% 0 mm 622.0 W/m2
16:38 26.2 °C 8.2 °C 1007 hPa South 19.5 km/h 24.1 km/h 32% 0 mm 580.0 W/m2
16:47 26.2 °C 8.7 °C 1007.3 hPa SSW 33.8 km/h 37 km/h 33% 0 mm 524.0 W/m2
16:53 25.9 °C 7.9 °C 1007.3 hPa SSE 22.7 km/h 30.6 km/h 32% 0 mm 508.0 W/m2
17:10 25.9 °C 8.4 °C 1007.3 hPa South 24.1 km/h 30.6 km/h 33% 0 mm 457.0 W/m2
17:31 25.7 °C 8.2 °C 1007.7 hPa SSW 30.6 km/h 32.2 km/h 33% 0 mm 381.0 W/m2
17:40 25.4 °C 8 °C 1007.7 hPa South 25.9 km/h 37 km/h 33% 0 mm 348.0 W/m2
18:00 25.2 °C 8.2 °C 1007.7 hPa South 25.9 km/h 33.8 km/h 34% 0 mm 278.0 W/m2
18:12 24.6 °C 9.3 °C 1008 hPa South 28.8 km/h 41.8 km/h 38% 0 mm 234.0 W/m2
18:26 24 °C 9.6 °C 1008 hPa SSW 25.9 km/h 37 km/h 40% 0 mm 163.0 W/m2
18:42 23.5 °C 9.5 °C 1008 hPa South 35.2 km/h 37 km/h 41% 0 mm 98.0 W/m2
19:11 22.2 °C 9 °C 1008.7 hPa South 27.4 km/h 37 km/h 43% 0 mm 14.0 W/m2
19:42 21.3 °C 8.6 °C 1009 hPa South 28.8 km/h 33.8 km/h 44% 0 mm 0.0 W/m2
19:56 20.8 °C 7.4 °C 1009.4 hPa South 22.7 km/h 38.6 km/h 42% 0 mm 0.0 W/m2
20:16 20.1 °C 6.4 °C 1009.7 hPa South 32 km/h 35.4 km/h 41% 0 mm 0.0 W/m2
20:27 19.8 °C 6.2 °C 1010 hPa SSE 22.7 km/h 35.4 km/h 41% 0 mm 0.0 W/m2
21:02 18.6 °C 5.4 °C 1010.7 hPa South 16.3 km/h 27.4 km/h 42% 0 mm 0.0 W/m2
21:27 17.9 °C 5.8 °C 1011.1 hPa South 19.5 km/h 33.8 km/h 45% 0 mm 0.0 W/m2
21:37 17.7 °C 5.9 °C 1011.4 hPa South 22.7 km/h 33.8 km/h 46% 0 mm 0.0 W/m2
22:02 17.2 °C 6.1 °C 1011.7 hPa South 20.9 km/h 27.4 km/h 48% 0 mm 0.0 W/m2
22:10 17 °C 5.9 °C 1011.7 hPa SSE 25.9 km/h 29 km/h 48% 0 mm 0.0 W/m2
22:30 16.6 °C 5.8 °C 1012.1 hPa SSE 25.9 km/h 29 km/h 49% 0 mm 0.0 W/m2
22:38 16.5 °C 6 °C 1012.1 hPa South 19.5 km/h 33.8 km/h 50% 0 mm 0.0 W/m2
22:43 16.4 °C 5.9 °C 1012.1 hPa South 28.8 km/h 29 km/h 50% 0 mm 0.0 W/m2
22:48 16.3 °C 6.1 °C 1012.1 hPa SSW 25.9 km/h 27.4 km/h 51% 0 mm 0.0 W/m2
22:53 16.2 °C 6.1 °C 1012.1 hPa SSW 22.7 km/h 32.2 km/h 51% 0 mm 0.0 W/m2
22:58 16.2 °C 6.1 °C 1012.1 hPa South 22.7 km/h 33.8 km/h 51% 0 mm 0.0 W/m2
23:03 16.1 °C 6 °C 1012.4 hPa South 20.9 km/h 30.6 km/h 51% 0 mm 0.0 W/m2
23:13 15.9 °C 5.8 °C 1012.1 hPa SSW 24.1 km/h 27.4 km/h 51% 0 mm 0.0 W/m2
23:23 15.8 °C 5.7 °C 1012.1 hPa South 27.4 km/h 30.6 km/h 51% 0 mm 0.0 W/m2
23:28 15.7 °C 5.6 °C 1012.4 hPa SSW 20.9 km/h 32.2 km/h 51% 0 mm 0.0 W/m2
23:33 15.7 °C 5.6 °C 1012.4 hPa South 16.3 km/h 24.1 km/h 51% 0 mm 0.0 W/m2
23:38 15.6 °C 5.5 °C 1012.4 hPa SSW 16.3 km/h 29 km/h 51% 0 mm 0.0 W/m2
23:43 15.6 °C 5.5 °C 1012.8 hPa South 22.7 km/h 29 km/h 51% 0 mm 0.0 W/m2
23:48 15.6 °C 5.8 °C 1012.4 hPa SSW 19.5 km/h 25.7 km/h 52% 0 mm 0.0 W/m2
23:53 15.4 °C 5.6 °C 1012.4 hPa South 14.3 km/h 27.4 km/h 52% 0 mm 0.0 W/m2
23:58 15.3 °C 5.5 °C 1012.4 hPa South 19.5 km/h 25.7 km/h 52% 0 mm 0.0 W/m2
Canyon Roadhouse, Fishriver Canyon, Namibia
Compliments of Weather Underground - 2.5 mb